Terminal Aerodrome Forecast
Issued by NWS Nashville, TN

Home | Current Version | Previous Version | Text Only | Print | Product List | Glossary On
Versions: 1 2 3 4 5 6 7 8 9 10 11 12 13 14 15 16 17 18 19 20 21 22 23 24 25 26 27
000
FTUS44 KOHX 270300 AAB
TAFBNA
TAF AMD
KBNA 270348Z 2704/2724 35010G18KT P6SM OVC018
     FM270700 35008KT P6SM SKC
     FM271200 35007KT P6SM OVC100
     FM271700 34010G18KT P6SM OVC100=

USA.gov is the U.S. government's official web portal to all federal, state and local government web resources and services.